createdAt,value
2022-08-21T00:02:17.820Z,90.97
2022-08-21T00:04:48.315Z,91.10
2022-08-21T00:07:24.154Z,90.96
2022-08-21T00:09:52.462Z,91.34
2022-08-21T00:12:18.995Z,91.99
2022-08-21T00:14:46.001Z,92.18
2022-08-21T00:17:13.252Z,92.12
2022-08-21T00:19:39.644Z,91.44
2022-08-21T00:22:06.579Z,91.17
2022-08-21T00:24:32.963Z,91.05
2022-08-21T00:26:59.723Z,90.89
2022-08-21T00:29:26.555Z,90.51
2022-08-21T00:31:53.313Z,89.90
2022-08-21T00:34:19.761Z,89.71
2022-08-21T00:36:47.014Z,90.15
2022-08-21T00:39:13.366Z,90.58
2022-08-21T00:41:40.535Z,90.32
2022-08-21T00:44:09.990Z,89.25
2022-08-21T00:46:37.080Z,90.62
2022-08-21T00:49:05.323Z,89.61
2022-08-21T00:52:01.255Z,90.10
2022-08-21T00:54:30.698Z,91.37
2022-08-21T00:57:01.742Z,90.28
2022-08-21T00:59:30.288Z,89.82
2022-08-21T01:01:56.670Z,90.04
2022-08-21T01:04:24.566Z,90.43
2022-08-21T01:06:52.303Z,89.75
2022-08-21T01:09:19.796Z,90.01
2022-08-21T01:11:47.094Z,90.52
2022-08-21T01:14:14.990Z,90.92
2022-08-21T01:16:45.049Z,90.41
2022-08-21T01:19:13.275Z,90.44
2022-08-21T01:21:39.692Z,90.57
2022-08-21T01:24:06.633Z,90.45
2022-08-21T01:26:37.172Z,90.01
2022-08-21T01:29:26.871Z,88.96
2022-08-21T01:31:53.291Z,89.59
2022-08-21T01:34:20.143Z,89.67
2022-08-21T01:36:47.039Z,89.61
2022-08-21T01:39:13.443Z,90.23
2022-08-21T01:41:40.489Z,90.02
2022-08-21T01:44:06.875Z,90.39
2022-08-21T01:46:33.814Z,89.78
2022-08-21T01:49:00.596Z,90.04
2022-08-21T01:51:27.087Z,89.97
2022-08-21T01:53:53.471Z,89.82
2022-08-21T01:56:20.256Z,90.44
2022-08-21T01:58:48.032Z,89.38
2022-08-21T02:01:15.437Z,89.74
2022-08-21T02:03:42.592Z,89.73
2022-08-21T02:06:15.686Z,89.94
2022-08-21T02:08:42.804Z,89.72
2022-08-21T02:11:09.179Z,89.67
2022-08-21T02:13:35.574Z,90.24
2022-08-21T02:16:02.464Z,90.51
2022-08-21T02:18:30.602Z,89.74
2022-08-21T02:20:57.240Z,90.11
2022-08-21T02:23:26.481Z,90.29
2022-08-21T02:25:53.771Z,91.07
2022-08-21T02:28:20.674Z,90.22
2022-08-21T02:30:48.766Z,91.00
2022-08-21T02:33:16.739Z,90.33
2022-08-21T02:35:44.453Z,90.47
2022-08-21T02:38:14.867Z,89.98
2022-08-21T02:40:48.299Z,89.56
2022-08-21T02:43:16.196Z,89.74
2022-08-21T02:45:43.379Z,90.38
2022-08-21T02:48:12.252Z,90.03
2022-08-21T02:50:43.639Z,90.30
2022-08-21T02:53:17.884Z,90.28
2022-08-21T02:55:49.251Z,89.98
2022-08-21T02:58:18.595Z,90.69
2022-08-21T03:00:45.130Z,90.49
2022-08-21T03:03:12.335Z,90.42
2022-08-21T03:05:38.775Z,90.49
2022-08-21T03:08:11.131Z,89.84
2022-08-21T03:10:41.097Z,89.86
2022-08-21T03:13:08.164Z,90.03
2022-08-21T03:15:34.851Z,89.86
2022-08-21T03:18:02.772Z,90.58
2022-08-21T03:20:30.482Z,91.12
2022-08-21T03:22:57.051Z,91.32
2022-08-21T03:25:39.528Z,91.05
2022-08-21T03:28:13.371Z,90.67
2022-08-21T03:30:43.082Z,90.45
2022-08-21T03:33:12.256Z,90.35
2022-08-21T03:35:39.846Z,89.68
2022-08-21T03:38:06.571Z,90.06
2022-08-21T03:40:33.039Z,90.10
2022-08-21T03:42:59.815Z,89.89
2022-08-21T03:45:27.103Z,89.73
2022-08-21T03:47:54.890Z,89.63
2022-08-21T03:50:21.294Z,89.99
2022-08-21T03:52:48.124Z,90.27
2022-08-21T03:55:14.535Z,89.75
2022-08-21T03:57:40.916Z,90.06
2022-08-21T04:00:10.535Z,90.42
2022-08-21T04:02:36.898Z,90.44
2022-08-21T04:05:03.955Z,90.20
2022-08-21T04:07:30.851Z,89.64
2022-08-21T04:09:57.240Z,89.68
2022-08-21T04:12:24.486Z,89.89
2022-08-21T04:14:52.783Z,89.28
2022-08-21T04:17:19.691Z,90.09
2022-08-21T04:19:49.371Z,90.33
2022-08-21T04:22:19.981Z,90.60
2022-08-21T04:24:46.748Z,90.42
2022-08-21T04:27:13.104Z,90.15
2022-08-21T04:29:40.118Z,90.20
2022-08-21T04:32:07.865Z,90.01
2022-08-21T04:34:34.266Z,89.40
2022-08-21T04:37:00.653Z,89.47
2022-08-21T04:39:29.773Z,89.31
2022-08-21T04:41:56.600Z,89.80
2022-08-21T04:44:22.963Z,90.23
2022-08-21T04:46:49.871Z,89.57
2022-08-21T04:49:16.280Z,90.22
2022-08-21T04:51:42.796Z,89.82
2022-08-21T04:54:18.458Z,90.09
2022-08-21T04:56:56.398Z,90.35
2022-08-21T04:59:40.644Z,90.29
2022-08-21T05:02:09.579Z,89.27
2022-08-21T05:04:40.563Z,89.36
2022-08-21T05:07:11.764Z,89.48
2022-08-21T05:09:39.532Z,89.28
2022-08-21T05:12:07.191Z,88.92
2022-08-21T05:14:34.106Z,89.53
2022-08-21T05:17:00.499Z,89.85
2022-08-21T05:19:27.327Z,88.97
2022-08-21T05:21:53.692Z,90.79
2022-08-21T05:24:20.535Z,91.74
2022-08-21T05:26:47.798Z,92.62
2022-08-21T05:29:16.616Z,92.73
2022-08-21T05:31:43.901Z,93.25
2022-08-21T05:34:10.933Z,92.99
2022-08-21T05:36:37.333Z,93.27
2022-08-21T05:39:04.071Z,92.95
2022-08-21T05:41:31.186Z,92.81
2022-08-21T05:44:00.742Z,92.79
2022-08-21T05:46:27.187Z,93.40
2022-08-21T05:48:54.256Z,93.26
2022-08-21T05:51:20.640Z,92.99
2022-08-21T05:53:47.192Z,92.78
2022-08-21T05:56:14.738Z,91.84
2022-08-21T05:58:41.278Z,91.92
2022-08-21T06:01:09.738Z,91.26
2022-08-21T06:03:39.321Z,91.09
2022-08-21T06:06:05.932Z,87.49
2022-08-21T06:08:32.481Z,85.55
2022-08-21T06:11:01.221Z,82.56
2022-08-21T06:13:28.344Z,81.27
2022-08-21T06:16:15.817Z,79.52
2022-08-21T06:18:44.102Z,79.13
2022-08-21T06:21:12.264Z,77.34
2022-08-21T06:23:39.591Z,76.71
2022-08-21T06:26:08.068Z,76.96
2022-08-21T06:28:35.012Z,74.52
2022-08-21T06:31:02.168Z,72.57
2022-08-21T06:33:32.469Z,71.66
2022-08-21T06:35:59.279Z,70.85
2022-08-21T06:38:25.949Z,69.69
2022-08-21T06:40:52.963Z,69.22
2022-08-21T06:43:19.744Z,66.92
2022-08-21T06:45:46.784Z,66.82
2022-08-21T06:48:18.332Z,66.42
2022-08-21T06:50:45.537Z,66.21
2022-08-21T06:53:14.820Z,65.72
2022-08-21T06:55:41.448Z,64.80
2022-08-21T06:58:09.259Z,64.11
2022-08-21T07:00:39.800Z,63.47
2022-08-21T07:03:06.232Z,63.93
2022-08-21T07:05:33.687Z,66.20
2022-08-21T07:08:00.220Z,62.29
2022-08-21T07:10:27.723Z,62.22
2022-08-21T07:13:01.371Z,59.95
2022-08-21T07:15:29.052Z,60.17
2022-08-21T07:17:57.718Z,59.33
2022-08-21T07:20:24.159Z,61.06
2022-08-21T07:22:50.740Z,63.09
2022-08-21T07:25:17.692Z,58.95
2022-08-21T07:27:44.091Z,57.90
2022-08-21T07:30:10.831Z,55.66
2022-08-21T07:32:37.938Z,56.82
2022-08-21T07:35:05.008Z,54.95
2022-08-21T07:37:31.449Z,57.42
2022-08-21T07:39:58.417Z,55.64
2022-08-21T07:42:25.362Z,52.16
2022-08-21T07:44:53.136Z,52.01
2022-08-21T07:47:41.345Z,49.31
2022-08-21T07:50:10.058Z,49.62
2022-08-21T07:52:36.467Z,47.03
2022-08-21T07:55:06.296Z,47.79
2022-08-21T07:57:33.559Z,47.81
2022-08-21T08:00:00.001Z,45.71
2022-08-21T08:02:29.354Z,48.68
2022-08-21T08:04:59.874Z,48.27
2022-08-21T08:07:27.034Z,47.86
2022-08-21T08:09:53.784Z,51.85
2022-08-21T08:12:21.986Z,50.23
2022-08-21T08:14:48.507Z,44.91
2022-08-21T08:17:14.862Z,41.36
2022-08-21T08:19:41.665Z,41.44
2022-08-21T08:22:15.579Z,44.76
2022-08-21T08:24:42.783Z,44.10
2022-08-21T08:27:09.573Z,42.13
2022-08-21T08:29:36.212Z,49.01
2022-08-21T08:32:03.599Z,46.53
2022-08-21T08:34:31.936Z,39.97
2022-08-21T08:36:59.525Z,46.82
2022-08-21T08:39:29.647Z,47.87
2022-08-21T08:42:33.945Z,49.60
2022-08-21T08:45:03.576Z,44.14
2022-08-21T08:47:32.719Z,43.69
2022-08-21T08:50:10.323Z,39.83
2022-08-21T08:52:46.845Z,39.01
2022-08-21T08:55:27.525Z,40.70
2022-08-21T08:57:56.451Z,33.21
2022-08-21T09:00:24.908Z,30.39
2022-08-21T09:02:55.280Z,29.66
2022-08-21T09:06:01.284Z,28.47
2022-08-21T09:08:50.508Z,26.27
2022-08-21T09:11:28.752Z,27.25
2022-08-21T09:14:30.019Z,26.76
2022-08-21T09:17:06.320Z,27.45
2022-08-21T09:19:32.759Z,27.85
2022-08-21T09:22:17.988Z,28.74
2022-08-21T09:25:11.912Z,30.34
2022-08-21T09:27:39.421Z,29.43
2022-08-21T09:30:08.969Z,29.32
2022-08-21T09:32:38.284Z,29.15
2022-08-21T09:35:04.842Z,27.71
2022-08-21T09:37:33.242Z,28.41
2022-08-21T09:40:00.227Z,25.38
2022-08-21T09:42:30.082Z,25.93
2022-08-21T09:45:13.042Z,27.19
2022-08-21T09:47:39.469Z,29.58
2022-08-21T09:50:32.541Z,30.70
2022-08-21T09:53:02.252Z,30.75
2022-08-21T09:56:07.576Z,31.05
2022-08-21T09:58:37.321Z,31.09
2022-08-21T10:01:06.387Z,31.02
2022-08-21T10:03:34.048Z,30.08
2022-08-21T10:06:07.308Z,32.16
2022-08-21T10:08:41.540Z,33.33
2022-08-21T10:11:14.636Z,35.02
2022-08-21T10:13:59.312Z,36.19
2022-08-21T10:16:48.222Z,36.04
2022-08-21T10:19:24.403Z,32.51
2022-08-21T10:22:09.936Z,31.92
2022-08-21T10:24:53.897Z,32.52
2022-08-21T10:27:28.269Z,31.54
2022-08-21T10:30:01.482Z,33.44
2022-08-21T10:32:54.171Z,32.70
2022-08-21T10:35:23.659Z,32.53
2022-08-21T10:38:39.418Z,34.26
2022-08-21T10:41:33.109Z,30.47
2022-08-21T10:44:25.338Z,30.43
2022-08-21T10:47:06.942Z,27.54
2022-08-21T10:49:36.462Z,27.74
2022-08-21T10:52:29.515Z,30.01
2022-08-21T10:55:01.732Z,31.34
2022-08-21T10:57:43.794Z,30.17
2022-08-21T11:00:17.549Z,30.34
2022-08-21T11:02:51.776Z,32.68
2022-08-21T11:05:48.833Z,32.39
2022-08-21T11:08:42.206Z,29.95
2022-08-21T11:11:19.971Z,29.92
2022-08-21T11:13:57.259Z,27.70
2022-08-21T11:16:45.026Z,30.07
2022-08-21T11:19:32.825Z,30.94
2022-08-21T11:22:26.681Z,28.50
2022-08-21T11:25:04.062Z,27.75
2022-08-21T11:27:55.544Z,28.40
2022-08-21T11:30:24.939Z,26.55
2022-08-21T11:33:44.312Z,23.08
2022-08-21T11:36:26.196Z,23.02
2022-08-21T11:39:05.894Z,23.09
2022-08-21T11:41:41.743Z,23.30
2022-08-21T11:44:45.923Z,21.76
2022-08-21T11:47:31.262Z,21.69
2022-08-21T11:50:35.507Z,22.36
2022-08-21T11:53:18.321Z,21.24
2022-08-21T11:55:57.951Z,21.62
2022-08-21T11:58:46.755Z,21.21
2022-08-21T12:01:24.473Z,24.62
2022-08-21T12:04:03.714Z,27.17
2022-08-21T12:06:39.267Z,27.60
2022-08-21T12:09:12.886Z,29.06
2022-08-21T12:11:51.426Z,30.77
2022-08-21T12:14:20.097Z,31.61
2022-08-21T12:16:49.785Z,31.06
2022-08-21T12:19:22.005Z,30.86
2022-08-21T12:22:06.670Z,31.46
2022-08-21T12:24:51.744Z,30.98
2022-08-21T12:27:18.214Z,30.81
2022-08-21T12:29:51.394Z,30.04
2022-08-21T12:32:17.687Z,29.54
2022-08-21T12:34:53.769Z,29.98
2022-08-21T12:37:46.788Z,37.91
2022-08-21T12:40:23.406Z,36.75
2022-08-21T12:42:58.807Z,35.68
2022-08-21T12:45:30.268Z,37.21
2022-08-21T12:48:13.996Z,37.72
2022-08-21T12:50:51.176Z,37.71
2022-08-21T12:53:45.746Z,37.67
2022-08-21T12:56:16.224Z,33.54
2022-08-21T12:58:51.099Z,32.34
2022-08-21T13:01:41.500Z,30.26
2022-08-21T13:04:12.934Z,30.48
2022-08-21T13:06:43.171Z,28.74
2022-08-21T13:09:25.143Z,28.08
2022-08-21T13:11:52.761Z,29.04
2022-08-21T13:14:31.972Z,26.27
2022-08-21T13:17:00.525Z,29.56
2022-08-21T13:19:27.754Z,27.80
2022-08-21T13:21:54.538Z,27.74
2022-08-21T13:27:26.136Z,33.20
2022-08-21T13:30:11.016Z,34.40
2022-08-21T13:32:43.151Z,36.05
2022-08-21T13:35:17.434Z,35.16
2022-08-21T13:37:47.583Z,38.69
2022-08-21T13:40:21.562Z,38.43
2022-08-21T13:42:49.644Z,39.60
2022-08-21T13:45:22.156Z,41.37
2022-08-21T13:47:49.051Z,42.61
2022-08-21T13:50:19.520Z,41.13
2022-08-21T13:53:09.201Z,39.86
2022-08-21T13:55:43.323Z,38.59
2022-08-21T13:58:12.121Z,37.73
2022-08-21T14:00:51.265Z,38.86
2022-08-21T14:03:38.570Z,34.20
2022-08-21T14:06:19.748Z,37.61
2022-08-21T14:08:54.813Z,37.85
2022-08-21T14:11:22.290Z,38.03
2022-08-21T14:13:52.356Z,37.17
2022-08-21T14:16:46.878Z,36.63
2022-08-21T14:19:20.983Z,37.35
2022-08-21T14:21:48.066Z,37.24
2022-08-21T14:24:27.711Z,39.35
2022-08-21T14:26:59.755Z,41.48
2022-08-21T14:29:28.671Z,43.45
2022-08-21T14:32:01.931Z,44.81
2022-08-21T14:34:35.777Z,42.84
2022-08-21T14:37:03.108Z,43.14
2022-08-21T14:39:29.480Z,41.36
2022-08-21T14:41:58.167Z,39.32
2022-08-21T14:44:24.911Z,41.41
2022-08-21T14:46:56.097Z,38.37
2022-08-21T14:49:27.385Z,34.90
2022-08-21T14:51:57.938Z,34.87
2022-08-21T14:54:30.960Z,34.76
2022-08-21T14:57:00.168Z,36.16
2022-08-21T14:59:26.727Z,34.90
2022-08-21T15:01:53.289Z,34.97
2022-08-21T15:04:20.451Z,34.02
2022-08-21T15:06:46.849Z,35.38
2022-08-21T15:09:13.262Z,33.50
2022-08-21T15:11:42.012Z,33.42
2022-08-21T15:14:14.658Z,33.97
2022-08-21T15:16:41.243Z,35.08
2022-08-21T15:19:07.619Z,35.23
2022-08-21T15:21:34.023Z,34.14
2022-08-21T15:24:00.750Z,33.62
2022-08-21T15:26:27.143Z,33.64
2022-08-21T15:28:53.555Z,33.69
2022-08-21T15:31:20.344Z,33.52
2022-08-21T15:33:46.959Z,33.78
2022-08-21T15:36:13.378Z,33.54
2022-08-21T15:38:40.267Z,34.82
2022-08-21T15:41:07.025Z,35.31
2022-08-21T15:43:46.878Z,35.08
2022-08-21T15:46:16.399Z,34.90
2022-08-21T15:48:43.349Z,36.47
2022-08-21T15:51:12.451Z,35.53
2022-08-21T15:53:40.909Z,37.03
2022-08-21T15:56:19.100Z,36.10
2022-08-21T15:58:45.859Z,35.75
2022-08-21T16:01:12.399Z,36.19
2022-08-21T16:03:39.312Z,35.58
2022-08-21T16:06:06.355Z,35.87
2022-08-21T16:08:32.743Z,36.53
2022-08-21T16:11:00.815Z,35.75
2022-08-21T16:13:33.559Z,35.40
2022-08-21T16:16:00.053Z,35.12
2022-08-21T16:18:27.283Z,34.88
2022-08-21T16:20:53.897Z,34.93
2022-08-21T16:23:20.341Z,35.46
2022-08-21T16:25:47.307Z,35.78
2022-08-21T16:28:17.064Z,35.83
2022-08-21T16:30:45.995Z,35.45
2022-08-21T16:33:33.863Z,35.31
2022-08-21T16:36:02.041Z,36.17
2022-08-21T16:38:29.471Z,38.10
2022-08-21T16:40:56.760Z,38.54
2022-08-21T16:43:26.163Z,39.32
2022-08-21T16:45:53.931Z,38.54
2022-08-21T16:48:21.035Z,39.78
2022-08-21T16:50:50.956Z,40.11
2022-08-21T16:53:17.549Z,39.42
2022-08-21T16:55:44.772Z,38.76
2022-08-21T16:58:18.843Z,39.57
2022-08-21T17:00:45.714Z,39.26
2022-08-21T17:03:16.478Z,38.91
2022-08-21T17:05:44.055Z,40.26
2022-08-21T17:08:10.897Z,41.09
2022-08-21T17:10:37.542Z,41.72
2022-08-21T17:13:09.076Z,40.77
2022-08-21T17:15:38.675Z,41.50
2022-08-21T17:18:08.235Z,44.41
2022-08-21T17:20:34.688Z,44.32
2022-08-21T17:23:01.792Z,44.79
2022-08-21T17:25:28.312Z,45.80
2022-08-21T17:27:55.470Z,47.41
2022-08-21T17:30:23.060Z,48.65
2022-08-21T17:32:53.196Z,49.87
2022-08-21T17:35:20.076Z,50.93
2022-08-21T17:37:47.179Z,53.95
2022-08-21T17:40:15.348Z,55.68
2022-08-21T17:42:43.888Z,56.71
2022-08-21T17:45:14.612Z,56.40
2022-08-21T17:47:41.363Z,58.37
2022-08-21T17:50:09.546Z,58.06
2022-08-21T17:52:37.052Z,58.71
2022-08-21T17:55:04.656Z,58.65
2022-08-21T17:57:35.095Z,60.58
2022-08-21T18:00:06.240Z,60.78
2022-08-21T18:02:33.653Z,61.28
2022-08-21T18:05:00.018Z,61.87
2022-08-21T18:07:32.766Z,62.34
2022-08-21T18:10:05.230Z,63.36
2022-08-21T18:12:33.249Z,63.32
2022-08-21T18:15:00.955Z,64.99
2022-08-21T18:17:30.175Z,65.78
2022-08-21T18:19:57.068Z,65.91
2022-08-21T18:22:23.898Z,66.17
2022-08-21T18:24:50.261Z,67.23
2022-08-21T18:27:17.544Z,67.54
2022-08-21T18:29:47.222Z,67.75
2022-08-21T18:32:30.706Z,68.64
2022-08-21T18:35:01.344Z,69.08
2022-08-21T18:37:28.000Z,69.84
2022-08-21T18:39:54.595Z,70.51
2022-08-21T18:42:28.517Z,69.88
2022-08-21T18:45:00.730Z,69.86
2022-08-21T18:47:34.027Z,70.47
2022-08-21T18:50:00.414Z,70.93
2022-08-21T18:55:15.915Z,71.83
2022-08-21T18:57:46.540Z,72.27
2022-08-21T19:00:38.026Z,72.68
2022-08-21T19:03:12.131Z,73.01
2022-08-21T19:05:43.571Z,72.56
2022-08-21T19:08:13.041Z,72.84
2022-08-21T19:10:42.671Z,72.68
2022-08-21T19:13:12.773Z,73.43
2022-08-21T19:15:41.952Z,73.54
2022-08-21T19:18:14.562Z,74.08
2022-08-21T19:20:42.136Z,74.86
2022-08-21T19:23:12.060Z,75.37
2022-08-21T19:25:41.817Z,75.38
2022-08-21T19:28:14.983Z,75.01
2022-08-21T19:30:49.518Z,75.05
2022-08-21T19:33:23.832Z,75.75
2022-08-21T19:35:52.564Z,75.72
2022-08-21T19:38:19.560Z,76.23
2022-08-21T19:40:45.963Z,76.57
2022-08-21T19:43:13.140Z,76.29
2022-08-21T19:45:39.923Z,77.12
2022-08-21T19:48:06.512Z,77.43
2022-08-21T19:50:32.934Z,77.17
2022-08-21T19:53:00.040Z,77.70
2022-08-21T19:55:26.976Z,78.44
2022-08-21T19:57:55.052Z,78.46
2022-08-21T20:00:22.932Z,78.83
2022-08-21T20:02:50.535Z,78.68
2022-08-21T20:05:18.299Z,79.55
2022-08-21T20:07:46.029Z,79.85
2022-08-21T20:10:13.506Z,80.11
2022-08-21T20:12:40.997Z,80.15
2022-08-21T20:15:08.708Z,79.64
2022-08-21T20:17:36.154Z,79.60
2022-08-21T20:20:03.874Z,79.84
2022-08-21T20:22:30.245Z,80.05
2022-08-21T20:24:57.018Z,79.96
2022-08-21T20:27:25.898Z,80.38
2022-08-21T20:29:53.860Z,81.03
2022-08-21T20:32:22.463Z,80.83
2022-08-21T20:34:51.825Z,81.31
2022-08-21T20:37:22.414Z,80.84
2022-08-21T20:40:06.164Z,80.39
2022-08-21T20:42:33.164Z,81.66
2022-08-21T20:45:01.161Z,81.42
2022-08-21T20:47:29.471Z,81.94
2022-08-21T20:50:00.360Z,82.13
2022-08-21T20:52:26.822Z,82.13
2022-08-21T20:55:05.228Z,81.94
2022-08-21T20:57:42.435Z,82.12
2022-08-21T21:00:15.451Z,82.03
2022-08-21T21:02:50.835Z,81.96
2022-08-21T21:05:21.306Z,81.54
2022-08-21T21:07:55.632Z,81.35
2022-08-21T21:10:31.149Z,82.90
2022-08-21T21:13:14.592Z,83.48
2022-08-21T21:15:44.238Z,82.76
2022-08-21T21:18:18.448Z,82.85
2022-08-21T21:20:52.082Z,82.65
2022-08-21T21:23:35.542Z,82.87
2022-08-21T21:26:16.559Z,82.80
2022-08-21T21:28:46.958Z,82.45
2022-08-21T21:31:13.711Z,82.85
2022-08-21T21:33:40.423Z,82.66
2022-08-21T21:36:28.379Z,82.96
2022-08-21T21:39:08.312Z,82.62
2022-08-21T21:41:37.065Z,82.93
2022-08-21T21:44:37.951Z,82.68
2022-08-21T21:47:19.386Z,82.64
2022-08-21T21:50:03.943Z,82.26
2022-08-21T21:52:41.136Z,82.51
2022-08-21T21:55:32.779Z,83.26
2022-08-21T21:58:16.699Z,82.44
2022-08-21T22:00:52.277Z,83.45
2022-08-21T22:03:46.367Z,83.66
2022-08-21T22:06:23.075Z,83.74
2022-08-21T22:09:03.543Z,83.72
2022-08-21T22:11:55.555Z,83.43
2022-08-21T22:14:42.169Z,83.97
2022-08-21T22:17:37.042Z,84.35
2022-08-21T22:20:13.787Z,84.05
2022-08-21T22:22:43.006Z,83.99
2022-08-21T22:25:21.258Z,83.42
2022-08-21T22:27:57.126Z,83.97
2022-08-21T22:30:54.622Z,83.78
2022-08-21T22:33:24.720Z,83.80
2022-08-21T22:35:53.698Z,83.54
2022-08-21T22:38:30.247Z,83.72
2022-08-21T22:41:28.606Z,83.50
2022-08-21T22:44:03.930Z,84.11
2022-08-21T22:46:48.255Z,83.93
2022-08-21T22:49:47.247Z,84.77
2022-08-21T22:52:26.945Z,85.13
2022-08-21T22:55:00.310Z,84.69
2022-08-21T22:57:31.030Z,84.58
2022-08-21T23:00:12.574Z,84.48
2022-08-21T23:02:52.463Z,84.04
2022-08-21T23:05:30.906Z,83.63
2022-08-21T23:08:24.256Z,83.63
2022-08-21T23:10:56.351Z,83.96
2022-08-21T23:13:23.317Z,83.75
2022-08-21T23:16:01.390Z,83.47
2022-08-21T23:18:47.412Z,83.94
2022-08-21T23:21:44.921Z,83.72
2022-08-21T23:24:19.426Z,83.94
2022-08-21T23:27:07.907Z,83.52
2022-08-21T23:29:51.729Z,83.58
2022-08-21T23:32:56.155Z,84.63
2022-08-21T23:35:51.888Z,85.17
2022-08-21T23:38:48.923Z,84.91
2022-08-21T23:44:31.229Z,85.53
2022-08-21T23:47:13.304Z,86.06
2022-08-21T23:49:53.997Z,86.06
2022-08-21T23:52:42.811Z,85.74
2022-08-21T23:55:14.974Z,85.96
2022-08-21T23:57:58.542Z,86.04
